Time;durP1;ratioP1;P1;durP2;ratioP2;P2;SDS_P1;SDS_P2;PMS_P1;PMS_P2;Temp;Humidity;BMP_temperature;BMP_pressure;BME280_temperature;BME280_humidity;BME280_pressure;Samples;Min_cycle;Max_cycle;Signal;HPM_P1;HPM_P2
2021/09/17 00:01:50;;;;;;;9.27;6.80;;;;;;;;;;5074486;28;20404;-77
2021/09/17 00:04:16;;;;;;;11.13;7.30;;;;;;;;;;5073826;28;20025;-77
2021/09/17 00:06:42;;;;;;;11.75;7.18;;;;;;;;;;5074285;28;20104;-76
2021/09/17 00:09:09;;;;;;;11.52;7.53;;;;;;;;;;5073912;28;20032;-77
2021/09/17 00:11:35;;;;;;;14.77;8.50;;;;;;;;;;5074240;28;20028;-77
2021/09/17 00:14:01;;;;;;;13.60;7.72;;;;;;;;;;5073996;28;20487;-77
2021/09/17 00:16:27;;;;;;;11.20;6.90;;;;;;;;;;5074077;28;20073;-77
2021/09/17 00:18:53;;;;;;;14.63;7.30;;;;;;;;;;5073924;28;20028;-77
2021/09/17 00:21:19;;;;;;;12.35;7.25;;;;;;;;;;5073643;28;20384;-76
2021/09/17 00:23:48;;;;;;;12.40;6.45;;;;;;;;;;5073750;28;20078;-76
2021/09/17 00:26:14;;;;;;;11.70;7.78;;;;;;;;;;5073485;28;20475;-77
2021/09/17 00:28:40;;;;;;;9.05;6.78;;;;;;;;;;5073904;28;20103;-77
2021/09/17 00:31:06;;;;;;;12.77;6.82;;;;;;;;;;5073492;28;20166;-77
2021/09/17 00:33:34;;;;;;;16.23;8.18;;;;;;;;;;5073773;28;20043;-77
2021/09/17 00:36:02;;;;;;;9.63;6.97;;;;;;;;;;5073524;28;20536;-77
2021/09/17 00:38:28;;;;;;;11.15;7.80;;;;;;;;;;5073227;28;20127;-77
2021/09/17 00:40:54;;;;;;;13.70;8.00;;;;;;;;;;5073715;28;20103;-76
2021/09/17 00:43:20;;;;;;;13.20;7.47;;;;;;;;;;5073268;28;20094;-76
2021/09/17 00:45:47;;;;;;;11.10;7.35;;;;;;;;;;5073632;28;20030;-76
2021/09/17 00:48:14;;;;;;;12.40;7.38;;;;;;;;;;5073065;28;20047;-77
2021/09/17 00:50:40;;;;;;;11.40;7.00;;;;;;;;;;5073597;28;20037;-77
2021/09/17 00:53:06;;;;;;;11.13;6.75;;;;;;;;;;5073090;28;20475;-76
2021/09/17 00:55:32;;;;;;;11.20;6.72;;;;;;;;;;5073140;28;20432;-77
2021/09/17 00:57:59;;;;;;;10.80;6.47;;;;;;;;;;5073291;28;20020;-77
2021/09/17 01:00:25;;;;;;;9.07;6.40;;;;;;;;;;5072729;28;20401;-77
2021/09/17 01:02:51;;;;;;;11.13;6.95;;;;;;;;;;5073188;28;20024;-77
2021/09/17 01:05:24;;;;;;;11.68;7.03;;;;;;;;;;5072753;28;20028;-76
2021/09/17 01:07:50;;;;;;;11.67;6.90;;;;;;;;;;5072349;28;20033;-77
2021/09/17 01:10:16;;;;;;;12.50;7.10;;;;;;;;;;5072757;28;20052;-76
2021/09/17 01:12:43;;;;;;;10.75;7.28;;;;;;;;;;5072703;28;20093;-77
2021/09/17 01:15:10;;;;;;;12.15;7.28;;;;;;;;;;5072548;28;20063;-77
2021/09/17 01:17:38;;;;;;;8.32;7.22;;;;;;;;;;5072774;28;20107;-77
2021/09/17 01:20:05;;;;;;;12.20;6.93;;;;;;;;;;5072919;28;20028;-77
2021/09/17 01:22:31;;;;;;;12.32;6.60;;;;;;;;;;5072509;28;20162;-77
2021/09/17 01:24:57;;;;;;;13.40;8.00;;;;;;;;;;5072694;28;20024;-76
2021/09/17 01:27:24;;;;;;;13.05;7.82;;;;;;;;;;5072342;28;20025;-77
2021/09/17 01:29:50;;;;;;;12.70;7.10;;;;;;;;;;5072640;28;20043;-77
2021/09/17 01:32:17;;;;;;;11.65;7.97;;;;;;;;;;5072222;28;20078;-76
2021/09/17 01:34:43;;;;;;;10.20;7.57;;;;;;;;;;5072458;28;20517;-77
2021/09/17 01:37:09;;;;;;;14.00;7.95;;;;;;;;;;5072676;28;20077;-76
2021/09/17 01:39:35;;;;;;;13.25;7.40;;;;;;;;;;5072084;28;20052;-77
2021/09/17 01:42:01;;;;;;;12.88;7.18;;;;;;;;;;5072510;28;20033;-77
2021/09/17 01:44:27;;;;;;;12.20;7.72;;;;;;;;;;5072076;28;20024;-76
2021/09/17 01:46:53;;;;;;;13.63;8.05;;;;;;;;;;5072331;28;20024;-76
2021/09/17 01:49:19;;;;;;;10.77;8.40;;;;;;;;;;5072037;28;20063;-76
2021/09/17 01:51:45;;;;;;;9.65;7.05;;;;;;;;;;5072323;28;20464;-77
2021/09/17 01:54:12;;;;;;;10.63;7.38;;;;;;;;;;5072360;28;20028;-77
2021/09/17 01:56:38;;;;;;;11.15;7.13;;;;;;;;;;5070603;28;20035;-77
2021/09/17 01:59:04;;;;;;;11.45;6.43;;;;;;;;;;5071035;28;20399;-77
2021/09/17 02:01:31;;;;;;;12.20;6.88;;;;;;;;;;5071943;28;20066;-76
2021/09/17 02:03:57;;;;;;;10.05;6.85;;;;;;;;;;5072179;28;20021;-76
2021/09/17 02:06:24;;;;;;;8.82;6.60;;;;;;;;;;5071939;28;20067;-76
2021/09/17 02:08:51;;;;;;;9.90;7.03;;;;;;;;;;5072140;28;20054;-77
2021/09/17 02:11:17;;;;;;;12.30;7.13;;;;;;;;;;5070935;28;20365;-77
2021/09/17 02:13:43;;;;;;;10.85;7.07;;;;;;;;;;5071861;28;20133;-76
2021/09/17 02:16:09;;;;;;;13.32;7.97;;;;;;;;;;5072219;28;20025;-78
2021/09/17 02:18:36;;;;;;;13.32;7.20;;;;;;;;;;5071614;28;20037;-77
2021/09/17 02:21:02;;;;;;;10.23;7.15;;;;;;;;;;5071241;28;20390;-77
2021/09/17 02:23:28;;;;;;;12.43;7.75;;;;;;;;;;5071666;28;20028;-78
2021/09/17 02:25:54;;;;;;;12.77;7.97;;;;;;;;;;5071957;28;20028;-76
2021/09/17 02:28:20;;;;;;;12.00;7.97;;;;;;;;;;5071936;28;20564;-77
2021/09/17 02:30:46;;;;;;;14.60;8.07;;;;;;;;;;5071681;28;20016;-76
2021/09/17 02:33:12;;;;;;;16.40;9.10;;;;;;;;;;5071884;28;20040;-76
2021/09/17 02:35:39;;;;;;;14.52;8.25;;;;;;;;;;5071506;28;20028;-78
2021/09/17 02:38:05;;;;;;;17.15;8.15;;;;;;;;;;5071962;28;20437;-78
2021/09/17 02:40:31;;;;;;;14.88;8.45;;;;;;;;;;5071309;28;20055;-77
2021/09/17 02:42:58;;;;;;;13.25;7.05;;;;;;;;;;5071679;28;20106;-76
2021/09/17 02:45:24;;;;;;;14.82;8.30;;;;;;;;;;5071842;28;20028;-76
2021/09/17 02:47:50;;;;;;;16.55;9.55;;;;;;;;;;5071641;28;20024;-77
2021/09/17 02:50:17;;;;;;;14.32;8.80;;;;;;;;;;5071820;28;20051;-76
2021/09/17 02:52:43;;;;;;;13.18;8.50;;;;;;;;;;5071499;28;20037;-77
2021/09/17 02:55:10;;;;;;;15.73;8.43;;;;;;;;;;5071857;28;20024;-78
2021/09/17 02:57:37;;;;;;;11.50;8.00;;;;;;;;;;5071558;28;20021;-78
2021/09/17 03:00:05;;;;;;;14.45;8.00;;;;;;;;;;5071829;28;20126;-76
2021/09/17 03:02:31;;;;;;;10.27;6.50;;;;;;;;;;5071683;28;20056;-79
2021/09/17 03:04:57;;;;;;;9.40;6.72;;;;;;;;;;5071695;28;20025;-78
2021/09/17 03:07:23;;;;;;;12.68;6.65;;;;;;;;;;5071703;28;20025;-77
2021/09/17 03:09:49;;;;;;;9.57;6.78;;;;;;;;;;5071497;28;20024;-79
2021/09/17 03:12:15;;;;;;;14.52;7.95;;;;;;;;;;5071592;28;20028;-77
2021/09/17 03:14:42;;;;;;;13.05;7.70;;;;;;;;;;5071554;28;20107;-76
2021/09/17 03:17:09;;;;;;;14.13;7.88;;;;;;;;;;5071718;28;20033;-78
2021/09/17 03:19:35;;;;;;;15.05;8.63;;;;;;;;;;5071500;28;20430;-78
2021/09/17 03:22:01;;;;;;;16.08;8.70;;;;;;;;;;5071457;28;20076;-78
2021/09/17 03:24:28;;;;;;;13.57;8.13;;;;;;;;;;5071509;28;20031;-76
2021/09/17 03:26:54;;;;;;;16.67;8.63;;;;;;;;;;5071233;28;20032;-78
2021/09/17 03:29:20;;;;;;;10.95;7.60;;;;;;;;;;5071685;28;20082;-77
2021/09/17 03:31:46;;;;;;;13.55;8.07;;;;;;;;;;5071985;28;20024;-77
2021/09/17 03:34:12;;;;;;;14.00;7.97;;;;;;;;;;5075129;28;20052;-77
2021/09/17 03:36:44;;;;;;;11.18;8.05;;;;;;;;;;5074869;28;20025;-78
2021/09/17 03:39:12;;;;;;;12.10;7.60;;;;;;;;;;5074825;28;20060;-76
2021/09/17 03:41:38;;;;;;;15.77;6.97;;;;;;;;;;5074828;28;20107;-78
2021/09/17 03:44:07;;;;;;;14.20;7.13;;;;;;;;;;5074691;28;20023;-76
2021/09/17 03:46:34;;;;;;;14.77;7.35;;;;;;;;;;5074677;28;20032;-77
2021/09/17 03:49:00;;;;;;;18.40;8.77;;;;;;;;;;5074418;28;20025;-77
2021/09/17 03:51:26;;;;;;;11.48;7.68;;;;;;;;;;5074586;28;20036;-77
2021/09/17 03:53:52;;;;;;;11.65;7.25;;;;;;;;;;5074153;28;20098;-77
2021/09/17 03:56:18;;;;;;;12.63;7.47;;;;;;;;;;5074479;28;20476;-77
2021/09/17 03:58:44;;;;;;;12.10;6.95;;;;;;;;;;5074142;28;20033;-77
2021/09/17 04:01:11;;;;;;;13.32;7.43;;;;;;;;;;5074385;28;20028;-77
2021/09/17 04:03:37;;;;;;;12.05;7.32;;;;;;;;;;5074335;28;20108;-77
2021/09/17 04:06:03;;;;;;;14.98;8.88;;;;;;;;;;5072755;28;20532;-77
2021/09/17 04:08:29;;;;;;;13.93;7.88;;;;;;;;;;5074228;28;20035;-77
2021/09/17 04:10:55;;;;;;;13.98;9.50;;;;;;;;;;5074059;28;20379;-76
2021/09/17 04:13:21;;;;;;;16.58;7.93;;;;;;;;;;5074226;28;20032;-77
2021/09/17 04:15:47;;;;;;;17.02;8.48;;;;;;;;;;5074030;28;20411;-77
2021/09/17 04:18:16;;;;;;;15.20;8.13;;;;;;;;;;5073995;28;20479;-77
2021/09/17 04:20:42;;;;;;;14.93;8.35;;;;;;;;;;5073671;28;20037;-77
2021/09/17 04:23:08;;;;;;;16.00;8.18;;;;;;;;;;5073803;28;20020;-77
2021/09/17 04:25:35;;;;;;;15.60;8.20;;;;;;;;;;5073870;28;20035;-77
2021/09/17 04:28:01;;;;;;;14.35;8.40;;;;;;;;;;5073495;28;20456;-76
2021/09/17 04:30:27;;;;;;;15.88;8.55;;;;;;;;;;5073773;28;20032;-76
2021/09/17 04:32:54;;;;;;;13.25;7.47;;;;;;;;;;5073519;28;20495;-76
2021/09/17 04:35:20;;;;;;;13.50;7.80;;;;;;;;;;5073663;28;20396;-76
2021/09/17 04:37:47;;;;;;;12.82;7.00;;;;;;;;;;5073588;28;20031;-78
2021/09/17 04:40:14;;;;;;;16.50;8.07;;;;;;;;;;5073362;28;20056;-76
2021/09/17 04:42:41;;;;;;;15.95;9.25;;;;;;;;;;5072723;28;20024;-76
2021/09/17 04:45:07;;;;;;;17.25;8.95;;;;;;;;;;5073332;28;20028;-78
2021/09/17 04:47:34;;;;;;;13.27;7.57;;;;;;;;;;5073349;28;20107;-77
2021/09/17 04:50:02;;;;;;;13.80;8.65;;;;;;;;;;5073034;28;20043;-77
2021/09/17 04:52:28;;;;;;;18.13;9.63;;;;;;;;;;5073286;28;20036;-78
2021/09/17 04:54:57;;;;;;;16.35;8.85;;;;;;;;;;5073043;28;20082;-77
2021/09/17 04:57:23;;;;;;;19.00;9.13;;;;;;;;;;5073478;28;20032;-77
2021/09/17 04:59:49;;;;;;;16.48;9.40;;;;;;;;;;5073152;28;20051;-76
2021/09/17 05:02:15;;;;;;;19.63;10.20;;;;;;;;;;5072773;28;20052;-77
2021/09/17 05:04:41;;;;;;;19.20;10.27;;;;;;;;;;5072783;28;20029;-78
2021/09/17 05:07:07;;;;;;;21.70;10.15;;;;;;;;;;5072900;28;20078;-77
2021/09/17 05:09:34;;;;;;;16.13;9.73;;;;;;;;;;5073204;28;20395;-76
2021/09/17 05:12:00;;;;;;;18.50;9.68;;;;;;;;;;5071696;28;20127;-78
2021/09/17 05:14:26;;;;;;;18.58;9.38;;;;;;;;;;5072272;28;20086;-78
2021/09/17 05:16:52;;;;;;;12.73;8.35;;;;;;;;;;5089999;28;20036;-79
2021/09/17 05:19:22;;;;;;;16.10;8.00;;;;;;;;;;5091839;28;20024;-80
2021/09/17 05:21:51;;;;;;;15.15;8.23;;;;;;;;;;5090764;28;20046;-79
2021/09/17 05:24:26;;;;;;;12.52;8.55;;;;;;;;;;5092582;28;20028;-79
2021/09/17 05:26:52;;;;;;;18.30;7.93;;;;;;;;;;5092221;28;20077;-82
2021/09/17 05:29:18;;;;;;;17.92;9.55;;;;;;;;;;5077075;28;20052;-78
2021/09/17 05:31:44;;;;;;;21.17;11.70;;;;;;;;;;5085366;28;20109;-77
2021/09/17 05:34:10;;;;;;;18.58;11.13;;;;;;;;;;5091847;28;20165;-78
2021/09/17 05:36:36;;;;;;;22.27;11.45;;;;;;;;;;5091424;28;20028;-79
2021/09/17 05:39:03;;;;;;;19.92;11.65;;;;;;;;;;5091988;28;20392;-78
2021/09/17 05:41:29;;;;;;;18.67;9.40;;;;;;;;;;5092351;28;20502;-79
2021/09/17 05:43:55;;;;;;;17.73;8.60;;;;;;;;;;5091934;28;20457;-77
2021/09/17 05:46:21;;;;;;;14.63;7.72;;;;;;;;;;5092218;28;20178;-78
2021/09/17 05:48:47;;;;;;;13.85;7.50;;;;;;;;;;5092618;28;20099;-79
2021/09/17 05:51:13;;;;;;;16.00;8.57;;;;;;;;;;5092191;28;20054;-78
2021/09/17 05:53:40;;;;;;;16.45;11.05;;;;;;;;;;5090264;28;20047;-78
2021/09/17 05:56:06;;;;;;;24.85;17.05;;;;;;;;;;5091891;28;20132;-79
2021/09/17 05:58:34;;;;;;;13.20;8.93;;;;;;;;;;5091764;28;20052;-79
2021/09/17 06:01:02;;;;;;;19.77;7.75;;;;;;;;;;5091455;28;20107;-78
2021/09/17 06:03:41;;;;;;;;;;;;;;;;;;;;;
2021/09/17 06:06:08;;;;;;;15.88;9.77;;;;;;;;;;5091656;28;20023;-78
2021/09/17 06:08:34;;;;;;;14.82;8.27;;;;;;;;;;5091998;28;20089;-77
2021/09/17 06:11:00;;;;;;;21.02;10.45;;;;;;;;;;5091197;28;20114;-78
2021/09/17 06:13:26;;;;;;;14.07;9.40;;;;;;;;;;5090216;28;20034;-78
2021/09/17 06:15:52;;;;;;;17.27;8.70;;;;;;;;;;5091131;28;20042;-81
2021/09/17 06:18:21;;;;;;;14.90;8.98;;;;;;;;;;5089942;28;20082;-79
2021/09/17 06:20:50;;;;;;;20.02;9.60;;;;;;;;;;5090871;28;20024;-79
2021/09/17 06:23:18;;;;;;;13.25;8.90;;;;;;;;;;5090832;28;20513;-83
2021/09/17 06:25:45;;;;;;;55.45;26.27;;;;;;;;;;5090801;28;20107;-79
2021/09/17 06:28:11;;;;;;;15.23;9.18;;;;;;;;;;5091457;28;20025;-81
2021/09/17 06:30:37;;;;;;;17.55;8.77;;;;;;;;;;5091470;28;20082;-82
2021/09/17 06:33:04;;;;;;;14.98;9.20;;;;;;;;;;5091196;28;20759;-81
2021/09/17 06:35:30;;;;;;;14.98;9.45;;;;;;;;;;5091597;28;20020;-80
2021/09/17 06:37:58;;;;;;;17.65;9.77;;;;;;;;;;5091555;28;20036;-79
2021/09/17 06:40:28;;;;;;;19.42;10.07;;;;;;;;;;5091452;28;20101;-79
2021/09/17 06:42:55;;;;;;;33.08;10.98;;;;;;;;;;5091207;28;20031;-78
2021/09/17 06:45:24;;;;;;;15.80;9.10;;;;;;;;;;5091398;28;20035;-79
2021/09/17 06:47:53;;;;;;;12.65;7.82;;;;;;;;;;5091087;28;20028;-79
2021/09/17 06:50:20;;;;;;;12.85;7.22;;;;;;;;;;5090957;28;20119;-79
2021/09/17 06:52:49;;;;;;;13.45;8.05;;;;;;;;;;5090855;28;20048;-78
2021/09/17 06:55:18;;;;;;;20.65;8.93;;;;;;;;;;5091586;28;20114;-79
2021/09/17 06:57:48;;;;;;;12.48;7.85;;;;;;;;;;5091081;28;20028;-77
2021/09/17 07:00:15;;;;;;;14.43;8.45;;;;;;;;;;5089762;28;20032;-78
2021/09/17 07:02:42;;;;;;;11.63;7.45;;;;;;;;;;5091212;28;20406;-76
2021/09/17 07:05:08;;;;;;;13.52;9.45;;;;;;;;;;5090888;28;20153;-77
2021/09/17 07:07:40;;;;;;;14.43;9.02;;;;;;;;;;5094393;28;20035;-77
2021/09/17 07:10:07;;;;;;;12.40;8.38;;;;;;;;;;5094645;28;20024;-77
2021/09/17 07:12:33;;;;;;;13.93;8.45;;;;;;;;;;5087955;28;20044;-77
2021/09/17 07:15:00;;;;;;;15.80;8.93;;;;;;;;;;5078874;28;20036;-77
2021/09/17 07:17:26;;;;;;;13.80;8.60;;;;;;;;;;5083257;28;20020;-78
2021/09/17 07:19:57;;;;;;;13.25;7.78;;;;;;;;;;5093212;28;20032;-77
2021/09/17 07:22:24;;;;;;;13.35;7.40;;;;;;;;;;5095580;28;20020;-78
2021/09/17 07:24:50;;;;;;;12.77;10.48;;;;;;;;;;5095372;28;20028;-82
2021/09/17 07:27:18;;;;;;;24.50;21.02;;;;;;;;;;5094573;28;20035;-78
2021/09/17 07:29:45;;;;;;;11.93;8.45;;;;;;;;;;5092902;28;20051;-80
2021/09/17 07:32:11;;;;;;;12.75;8.43;;;;;;;;;;5094529;28;20050;-77
2021/09/17 07:34:37;;;;;;;13.13;6.28;;;;;;;;;;5094409;28;20020;-77
2021/09/17 07:37:03;;;;;;;11.45;8.07;;;;;;;;;;5093201;28;20032;-80
2021/09/17 07:39:30;;;;;;;13.13;7.57;;;;;;;;;;5093029;28;20052;-78
2021/09/17 07:41:56;;;;;;;14.52;7.13;;;;;;;;;;5094172;28;20031;-77
2021/09/17 07:44:22;;;;;;;12.93;6.88;;;;;;;;;;5090580;28;20028;-76
2021/09/17 07:46:48;;;;;;;25.63;8.80;;;;;;;;;;5089678;28;20056;-75
2021/09/17 07:49:14;;;;;;;10.23;7.35;;;;;;;;;;5084766;28;20501;-77
2021/09/17 07:51:40;;;;;;;10.65;7.07;;;;;;;;;;5073909;28;20391;-76
2021/09/17 07:54:06;;;;;;;15.75;9.82;;;;;;;;;;5073691;28;20036;-77
2021/09/17 07:56:33;;;;;;;19.52;15.15;;;;;;;;;;5073757;28;20064;-78
2021/09/17 07:58:59;;;;;;;9.30;7.18;;;;;;;;;;5074006;28;20030;-76
2021/09/17 08:01:25;;;;;;;22.13;15.38;;;;;;;;;;5075834;28;20511;-78
2021/09/17 08:03:51;;;;;;;10.25;6.68;;;;;;;;;;5082506;28;20494;-78
2021/09/17 08:06:19;;;;;;;11.60;6.95;;;;;;;;;;5073326;28;20024;-76
2021/09/17 08:08:45;;;;;;;14.30;10.68;;;;;;;;;;5074045;28;20479;-78
2021/09/17 08:11:12;;;;;;;11.55;7.40;;;;;;;;;;5073616;28;20035;-77
2021/09/17 08:13:38;;;;;;;9.57;6.63;;;;;;;;;;5073572;28;20044;-79
2021/09/17 08:16:04;;;;;;;9.55;6.18;;;;;;;;;;5072261;28;20024;-78
2021/09/17 08:18:30;;;;;;;16.10;7.80;;;;;;;;;;5089573;28;20062;-78
2021/09/17 08:23:41;;;;;;;14.05;7.70;;;;;;;;;;5093748;28;20406;-78
2021/09/17 08:26:11;;;;;;;14.13;6.68;;;;;;;;;;5093607;28;20479;-78
2021/09/17 08:28:37;;;;;;;11.73;6.22;;;;;;;;;;5093190;28;20032;-78
2021/09/17 08:31:03;;;;;;;11.35;6.85;;;;;;;;;;5093967;28;20035;-78
2021/09/17 08:33:31;;;;;;;12.63;6.47;;;;;;;;;;5093322;28;20039;-79
2021/09/17 08:35:57;;;;;;;15.20;8.00;;;;;;;;;;5093572;28;20028;-79
2021/09/17 08:38:23;;;;;;;20.77;7.78;;;;;;;;;;5092943;28;20024;-79
2021/09/17 08:40:53;;;;;;;10.25;7.80;;;;;;;;;;5093076;28;20507;-79
2021/09/17 08:43:20;;;;;;;9.80;6.50;;;;;;;;;;5092581;28;20028;-77
2021/09/17 08:45:46;;;;;;;11.45;6.95;;;;;;;;;;5092686;28;20070;-77
2021/09/17 08:48:15;;;;;;;10.65;6.55;;;;;;;;;;5093000;28;20032;-78
2021/09/17 08:50:41;;;;;;;10.27;6.50;;;;;;;;;;5073872;28;20495;-77
2021/09/17 08:53:07;;;;;;;10.63;7.07;;;;;;;;;;5092791;28;20079;-79
2021/09/17 08:55:33;;;;;;;10.95;6.22;;;;;;;;;;5092612;28;20093;-78
2021/09/17 08:57:59;;;;;;;9.38;6.50;;;;;;;;;;5093039;28;20502;-77
2021/09/17 09:00:31;;;;;;;10.32;6.32;;;;;;;;;;5092372;28;20028;-77
2021/09/17 09:02:57;;;;;;;12.35;6.47;;;;;;;;;;5092449;28;20031;-78
2021/09/17 09:05:27;;;;;;;14.68;7.35;;;;;;;;;;5077842;28;20024;-78
2021/09/17 09:07:54;;;;;;;10.38;6.65;;;;;;;;;;5072116;28;20040;-77
2021/09/17 09:10:21;;;;;;;8.75;6.45;;;;;;;;;;5072441;28;20041;-79
2021/09/17 09:12:50;;;;;;;11.73;6.32;;;;;;;;;;5072036;28;20487;-78
2021/09/17 09:15:18;;;;;;;8.90;5.25;;;;;;;;;;5079498;28;20028;-77
2021/09/17 09:17:47;;;;;;;11.10;6.35;;;;;;;;;;5091896;28;20024;-76
2021/09/17 09:20:22;;;;;;;11.38;5.85;;;;;;;;;;5092536;28;20501;-78
2021/09/17 09:23:09;;;;;;;12.18;6.70;;;;;;;;;;5092156;28;20035;-80
2021/09/17 09:25:55;;;;;;;8.38;6.47;;;;;;;;;;5091831;28;20481;-78
2021/09/17 09:28:23;;;;;;;16.50;11.35;;;;;;;;;;5091454;28;20020;-78
2021/09/17 09:30:50;;;;;;;12.60;6.85;;;;;;;;;;5091802;28;20088;-76
2021/09/17 09:33:30;;;;;;;12.73;6.43;;;;;;;;;;5092131;28;20388;-80
2021/09/17 09:35:56;;;;;;;11.05;5.80;;;;;;;;;;5090554;28;20119;-82
2021/09/17 09:38:33;;;;;;;11.35;5.93;;;;;;;;;;5092161;28;20228;-71
2021/09/17 09:41:00;;;;;;;10.52;7.43;;;;;;;;;;5092262;28;20031;-79
2021/09/17 09:43:30;;;;;;;13.60;6.68;;;;;;;;;;5091185;28;20080;-79
2021/09/17 09:46:16;;;;;;;13.48;7.28;;;;;;;;;;5091557;28;20034;-80
2021/09/17 09:49:03;;;;;;;16.70;9.02;;;;;;;;;;5091842;28;20157;-78
2021/09/17 09:51:31;;;;;;;13.57;7.38;;;;;;;;;;5091955;28;20483;-77
2021/09/17 09:53:57;;;;;;;10.55;5.47;;;;;;;;;;5091057;28;20040;-79
2021/09/17 09:56:24;;;;;;;8.07;5.40;;;;;;;;;;5090894;28;20020;-79
2021/09/17 09:58:53;;;;;;;11.55;6.22;;;;;;;;;;5086885;28;20027;-79
2021/09/17 10:01:20;;;;;;;15.77;7.18;;;;;;;;;;5091322;28;20020;-78
2021/09/17 10:03:47;;;;;;;14.02;6.78;;;;;;;;;;5090326;28;20081;-78
2021/09/17 10:06:17;;;;;;;14.40;6.05;;;;;;;;;;5089945;28;20393;-79
2021/09/17 10:08:43;;;;;;;12.15;5.20;;;;;;;;;;5087719;28;20036;-80
2021/09/17 10:11:10;;;;;;;14.90;6.40;;;;;;;;;;5085657;28;20020;-81
2021/09/17 10:13:37;;;;;;;12.60;4.85;;;;;;;;;;5090096;28;20031;-78
2021/09/17 10:16:03;;;;;;;7.93;5.30;;;;;;;;;;5086984;28;20032;-79
2021/09/17 10:18:32;;;;;;;12.00;7.07;;;;;;;;;;5090342;28;20025;-80
2021/09/17 10:20:58;;;;;;;12.75;6.35;;;;;;;;;;5091556;28;20024;-80
2021/09/17 10:23:29;;;;;;;11.18;5.13;;;;;;;;;;5091923;28;20107;-80
2021/09/17 10:25:59;;;;;;;11.43;5.10;;;;;;;;;;5091916;28;20052;-83
2021/09/17 10:28:25;;;;;;;18.55;7.13;;;;;;;;;;5092108;28;20055;-84
2021/09/17 10:31:08;;;;;;;11.82;5.47;;;;;;;;;;5091655;28;20046;-79
2021/09/17 10:33:34;;;;;;;17.93;6.13;;;;;;;;;;5091724;28;20380;-80
2021/09/17 10:36:01;;;;;;;12.82;5.65;;;;;;;;;;5091577;28;20804;-79
2021/09/17 10:38:28;;;;;;;13.43;5.82;;;;;;;;;;5091305;28;20055;-80
2021/09/17 10:41:03;;;;;;;16.15;6.68;;;;;;;;;;5092423;28;20031;-77
2021/09/17 10:43:49;;;;;;;14.43;6.65;;;;;;;;;;5095869;28;20041;-79
2021/09/17 10:46:21;;;;;;;13.43;5.72;;;;;;;;;;5095323;28;20081;-80
2021/09/17 10:48:49;;;;;;;10.30;4.63;;;;;;;;;;5095870;28;20028;-81
2021/09/17 10:51:34;;;;;;;12.30;7.85;;;;;;;;;;5095854;28;20462;-79
2021/09/17 10:54:00;;;;;;;11.40;6.43;;;;;;;;;;5095437;28;20058;-78
2021/09/17 10:56:27;;;;;;;14.30;6.10;;;;;;;;;;5095552;28;20118;-78
2021/09/17 10:59:13;;;;;;;15.60;5.50;;;;;;;;;;5091097;28;20035;-80
2021/09/17 11:01:59;;;;;;;14.10;5.68;;;;;;;;;;5089610;28;20028;-84
2021/09/17 11:04:29;;;;;;;18.15;7.45;;;;;;;;;;5095875;28;20451;-84
2021/09/17 11:06:56;;;;;;;20.30;6.10;;;;;;;;;;5095034;28;20024;-81
2021/09/17 11:09:41;;;;;;;16.67;6.38;;;;;;;;;;5087889;28;20058;-82
2021/09/17 11:12:19;;;;;;;13.77;6.72;;;;;;;;;;5095386;28;20368;-79
2021/09/17 11:14:57;;;;;;;9.52;5.05;;;;;;;;;;5087447;28;20024;-79
2021/09/17 11:17:41;;;;;;;13.15;8.13;;;;;;;;;;5083413;28;20035;-79
2021/09/17 11:20:12;;;;;;;18.33;11.50;;;;;;;;;;5095189;28;20077;-79
2021/09/17 11:22:57;;;;;;;26.35;20.23;;;;;;;;;;5094835;28;20024;-79
2021/09/17 11:25:42;;;;;;;34.17;23.77;;;;;;;;;;5095390;28;20043;-79
2021/09/17 11:28:29;;;;;;;31.55;19.80;;;;;;;;;;5094604;28;20028;-80
2021/09/17 11:31:14;;;;;;;21.42;12.60;;;;;;;;;;5094368;28;20024;-83
2021/09/17 11:33:42;;;;;;;20.15;12.30;;;;;;;;;;5092155;28;20062;-83
2021/09/17 11:36:08;;;;;;;14.43;9.65;;;;;;;;;;5090614;28;20024;-79
2021/09/17 11:38:35;;;;;;;12.90;8.02;;;;;;;;;;5082419;28;20087;-79
2021/09/17 11:41:01;;;;;;;16.30;8.93;;;;;;;;;;5086490;28;20053;-79
2021/09/17 11:43:27;;;;;;;17.00;6.63;;;;;;;;;;5090867;28;20024;-79
2021/09/17 11:45:54;;;;;;;20.90;8.15;;;;;;;;;;5089953;28;20032;-79
2021/09/17 11:48:22;;;;;;;21.30;8.07;;;;;;;;;;5083364;28;20380;-80
2021/09/17 11:50:48;;;;;;;17.27;6.72;;;;;;;;;;5094463;28;20032;-78
2021/09/17 11:53:15;;;;;;;16.38;5.57;;;;;;;;;;5094020;28;20111;-83
2021/09/17 11:55:41;;;;;;;19.50;5.55;;;;;;;;;;5094979;28;20066;-84
2021/09/17 11:58:07;;;;;;;11.48;4.95;;;;;;;;;;5090577;28;20031;-79
2021/09/17 12:00:33;;;;;;;20.15;6.13;;;;;;;;;;5093306;28;20038;-79
2021/09/17 12:03:05;;;;;;;11.95;5.95;;;;;;;;;;5093501;28;20417;-79
2021/09/17 12:05:32;;;;;;;15.60;6.72;;;;;;;;;;5093578;28;20032;-78
2021/09/17 12:08:01;;;;;;;14.38;5.68;;;;;;;;;;5092877;28;20055;-79
2021/09/17 12:10:27;;;;;;;16.90;7.35;;;;;;;;;;5094080;28;20032;-78
2021/09/17 12:12:59;;;;;;;20.52;12.98;;;;;;;;;;5095015;28;20028;-79
2021/09/17 12:15:27;;;;;;;22.23;13.60;;;;;;;;;;5091442;28;20060;-79
2021/09/17 12:18:00;;;;;;;28.50;13.10;;;;;;;;;;5088882;28;20534;-78
2021/09/17 12:20:45;;;;;;;16.38;9.68;;;;;;;;;;5089038;28;20111;-78
2021/09/17 12:23:12;;;;;;;21.02;8.07;;;;;;;;;;5089076;28;20115;-78
2021/09/17 12:25:39;;;;;;;12.05;6.68;;;;;;;;;;5091320;28;20020;-79
2021/09/17 12:28:06;;;;;;;16.05;6.95;;;;;;;;;;5093298;28;20028;-79
2021/09/17 12:30:35;;;;;;;13.95;6.70;;;;;;;;;;5092870;28;20069;-79
2021/09/17 12:33:04;;;;;;;16.45;5.65;;;;;;;;;;5093915;28;20032;-76
2021/09/17 12:35:30;;;;;;;14.10;6.05;;;;;;;;;;5093130;28;20028;-78
2021/09/17 12:37:58;;;;;;;12.32;5.60;;;;;;;;;;5093952;28;20024;-79
2021/09/17 12:40:26;;;;;;;14.02;5.20;;;;;;;;;;5093699;28;20046;-79
2021/09/17 12:43:03;;;;;;;14.27;5.72;;;;;;;;;;5094028;28;20139;-80
2021/09/17 12:45:32;;;;;;;13.15;6.55;;;;;;;;;;5089778;28;20036;-78
2021/09/17 12:47:59;;;;;;;15.25;6.95;;;;;;;;;;5086800;28;20418;-79
2021/09/17 12:50:38;;;;;;;20.30;6.38;;;;;;;;;;5093114;28;20028;-81
2021/09/17 12:53:23;;;;;;;17.73;10.05;;;;;;;;;;5093378;28;20115;-82
2021/09/17 12:56:01;;;;;;;20.02;8.65;;;;;;;;;;5093109;28;20475;-80
2021/09/17 12:58:30;;;;;;;13.27;6.47;;;;;;;;;;5093501;28;20082;-80
2021/09/17 13:00:57;;;;;;;16.38;7.07;;;;;;;;;;5091763;28;20200;-79
2021/09/17 13:03:23;;;;;;;17.67;7.13;;;;;;;;;;5092488;28;20471;-77
2021/09/17 13:05:52;;;;;;;15.13;6.63;;;;;;;;;;5092992;28;20470;-78
2021/09/17 13:08:19;;;;;;;15.20;6.60;;;;;;;;;;5091260;28;20435;-79
2021/09/17 13:10:48;;;;;;;11.60;5.32;;;;;;;;;;5093335;28;20039;-78
2021/09/17 13:13:14;;;;;;;11.85;5.30;;;;;;;;;;5093286;28;20040;-78
2021/09/17 13:15:41;;;;;;;10.77;4.75;;;;;;;;;;5093312;28;20660;-78
2021/09/17 13:18:07;;;;;;;16.63;5.65;;;;;;;;;;5093155;28;20028;-78
2021/09/17 13:20:35;;;;;;;15.13;6.35;;;;;;;;;;5085723;28;20430;-79
2021/09/17 13:23:01;;;;;;;15.77;5.10;;;;;;;;;;5073857;28;20077;-77
2021/09/17 13:25:28;;;;;;;22.77;7.20;;;;;;;;;;5072853;28;20028;-77
2021/09/17 13:27:55;;;;;;;16.45;6.38;;;;;;;;;;5080405;28;20479;-77
2021/09/17 13:30:29;;;;;;;12.00;5.82;;;;;;;;;;5073062;28;20035;-77
2021/09/17 13:32:58;;;;;;;13.45;5.40;;;;;;;;;;5072804;28;20475;-78
2021/09/17 13:35:26;;;;;;;21.17;6.82;;;;;;;;;;5072732;28;20028;-77
2021/09/17 13:37:56;;;;;;;15.55;5.90;;;;;;;;;;5072711;28;20035;-78
2021/09/17 13:40:24;;;;;;;10.68;5.55;;;;;;;;;;5086572;28;20052;-77
2021/09/17 13:42:51;;;;;;;12.88;5.15;;;;;;;;;;5073042;28;20035;-77
2021/09/17 13:45:18;;;;;;;11.38;5.75;;;;;;;;;;5076414;28;20028;-77
2021/09/17 13:47:45;;;;;;;9.90;5.05;;;;;;;;;;5092861;28;20036;-78
2021/09/17 13:50:13;;;;;;;9.77;4.90;;;;;;;;;;5092688;28;20024;-78
2021/09/17 13:52:41;;;;;;;15.55;4.90;;;;;;;;;;5092114;28;20160;-83
2021/09/17 13:55:08;;;;;;;18.60;6.18;;;;;;;;;;5092938;28;20028;-84
2021/09/17 13:57:34;;;;;;;12.77;5.13;;;;;;;;;;5090869;28;20020;-79
2021/09/17 14:00:00;;;;;;;14.48;6.57;;;;;;;;;;5092776;28;20110;-81
2021/09/17 14:02:29;;;;;;;10.70;4.47;;;;;;;;;;5091379;28;20024;-84
2021/09/17 14:04:55;;;;;;;14.23;5.38;;;;;;;;;;5091919;28;20036;-81
2021/09/17 14:07:21;;;;;;;12.90;5.95;;;;;;;;;;5092726;28;20162;-83
2021/09/17 14:09:47;;;;;;;13.88;5.47;;;;;;;;;;5092580;28;20085;-78
2021/09/17 14:12:14;;;;;;;14.20;5.10;;;;;;;;;;5092544;28;20135;-78
2021/09/17 14:14:40;;;;;;;11.77;5.30;;;;;;;;;;5092393;28;20047;-78
2021/09/17 14:17:06;;;;;;;9.77;5.05;;;;;;;;;;5089359;28;20038;-78
2021/09/17 14:19:32;;;;;;;12.55;5.97;;;;;;;;;;5091649;28;20533;-78
2021/09/17 14:22:02;;;;;;;13.18;5.30;;;;;;;;;;5090995;28;20031;-78
2021/09/17 14:24:28;;;;;;;14.23;5.53;;;;;;;;;;5092207;28;20097;-78
2021/09/17 14:26:54;;;;;;;13.63;5.20;;;;;;;;;;5091851;28;20020;-78
2021/09/17 14:29:20;;;;;;;14.98;4.82;;;;;;;;;;5091740;28;20024;-78
2021/09/17 14:31:46;;;;;;;12.05;4.70;;;;;;;;;;5091777;28;20493;-78
2021/09/17 14:34:20;;;;;;;10.23;5.03;;;;;;;;;;5091959;28;20051;-78
2021/09/17 14:36:47;;;;;;;12.93;4.28;;;;;;;;;;5091620;28;20055;-79
2021/09/17 14:39:46;;;;;;;10.90;4.13;;;;;;;;;;5091441;28;20126;-78